KAIK/AIK METAR and TAF weather

Enter ICAO airport designator
Station Type Date Time Source
KAIK METAR 2018/12/12 16:35 UTC NOAA

KAIK 121635Z AUTO 00000KT 10SM CLR 08/M01 A3026 RMK AO2


Station Type Date Time Source
KAIK Decoded METAR 2018/12/12 16:35 UTC NOAA

Station name not available
Dec 12, 2018 - 11:35 AM EST / 2018.12.12 1635 UTC
Wind: Calm:0
Visibility: 10 mile(s):0
Sky conditions: clear
Temperature: 46 F (8 C)
Dew Point: 30 F (-1 C)
Relative Humidity: 52%
Pressure (altimeter): 30.26 in. Hg (1024 hPa)
ob: KAIK 121635Z AUTO 00000KT 10SM CLR 08/M01 A3026 RMK AO2
cycle: 16

Station Type Date Time Source
KAIK TAF UTC NOAA

Error!


Example: see airport list